sensor_id;sensor_type;location;lat;lon;timestamp;pressure;altitude;pressure_sealevel;temperature;humidity
47785;BME280;35233;55.686;37.848;2023-04-25T00:01:54;99587.59;;;21.30;29.90
47785;BME280;35233;55.686;37.848;2023-04-25T00:04:21;99595.66;;;21.30;30.05
47785;BME280;35233;55.686;37.848;2023-04-25T00:06:47;99593.06;;;21.29;30.09
47785;BME280;35233;55.686;37.848;2023-04-25T00:09:12;99591.59;;;21.24;30.40
47785;BME280;35233;55.686;37.848;2023-04-25T00:11:38;99596.84;;;21.26;30.30
47785;BME280;35233;55.686;37.848;2023-04-25T00:14:04;99589.13;;;21.21;30.13
47785;BME280;35233;55.686;37.848;2023-04-25T00:16:30;99589.88;;;21.23;30.44
47785;BME280;35233;55.686;37.848;2023-04-25T00:18:59;99600.81;;;21.20;30.01
47785;BME280;35233;55.686;37.848;2023-04-25T00:21:24;99595.44;;;21.20;30.40
47785;BME280;35233;55.686;37.848;2023-04-25T00:23:52;99600.81;;;21.20;30.52
47785;BME280;35233;55.686;37.848;2023-04-25T00:26:18;99591.06;;;21.19;30.23
47785;BME280;35233;55.686;37.848;2023-04-25T00:28:43;99590.19;;;21.19;30.03
47785;BME280;35233;55.686;37.848;2023-04-25T00:31:08;99592.91;;;21.19;30.29
47785;BME280;35233;55.686;37.848;2023-04-25T00:33:34;99594.72;;;21.18;30.22
47785;BME280;35233;55.686;37.848;2023-04-25T00:36:00;99598.25;;;21.19;30.24
47785;BME280;35233;55.686;37.848;2023-04-25T00:38:25;99592.13;;;21.17;30.62
47785;BME280;35233;55.686;37.848;2023-04-25T00:40:51;99597.63;;;21.15;30.35
47785;BME280;35233;55.686;37.848;2023-04-25T00:43:18;99590.53;;;21.14;30.01
47785;BME280;35233;55.686;37.848;2023-04-25T00:45:43;99588.81;;;21.13;30.27
47785;BME280;35233;55.686;37.848;2023-04-25T00:48:10;99585.38;;;21.11;30.46
47785;BME280;35233;55.686;37.848;2023-04-25T00:50:36;99586.22;;;21.12;29.94
47785;BME280;35233;55.686;37.848;2023-04-25T00:53:02;99577.31;;;21.11;30.36
47785;BME280;35233;55.686;37.848;2023-04-25T00:55:28;99584.53;;;21.11;30.34
47785;BME280;35233;55.686;37.848;2023-04-25T00:57:54;99577.31;;;21.11;30.61
47785;BME280;35233;55.686;37.848;2023-04-25T01:00:20;99570.47;;;21.07;30.44
47785;BME280;35233;55.686;37.848;2023-04-25T01:02:46;99562.28;;;21.09;30.08
47785;BME280;35233;55.686;37.848;2023-04-25T01:05:11;99568.78;;;21.06;30.50
47785;BME280;35233;55.686;37.848;2023-04-25T01:07:37;99555.53;;;21.03;30.47
47785;BME280;35233;55.686;37.848;2023-04-25T01:10:04;99561.56;;;21.07;30.58
47785;BME280;35233;55.686;37.848;2023-04-25T01:12:30;99558.88;;;21.07;30.40
47785;BME280;35233;55.686;37.848;2023-04-25T01:14:56;99554.59;;;21.04;30.58
47785;BME280;35233;55.686;37.848;2023-04-25T01:17:21;99540.84;;;20.96;30.29
47785;BME280;35233;55.686;37.848;2023-04-25T01:19:47;99550.16;;;21.03;30.82
47785;BME280;35233;55.686;37.848;2023-04-25T01:22:14;99546.75;;;21.01;30.79
47785;BME280;35233;55.686;37.848;2023-04-25T01:24:40;99539.66;;;21.00;30.88
47785;BME280;35233;55.686;37.848;2023-04-25T01:27:06;99546.84;;;20.99;30.83
47785;BME280;35233;55.686;37.848;2023-04-25T01:29:32;99537.31;;;20.95;30.61
47785;BME280;35233;55.686;37.848;2023-04-25T01:31:58;99539.16;;;20.95;31.01
47785;BME280;35233;55.686;37.848;2023-04-25T01:34:24;99543.44;;;20.97;31.02
47785;BME280;35233;55.686;37.848;2023-04-25T01:36:51;99548.91;;;20.96;30.76
47785;BME280;35233;55.686;37.848;2023-04-25T01:39:17;99535.69;;;20.93;30.93
47785;BME280;35233;55.686;37.848;2023-04-25T01:41:43;99543.00;;;20.91;30.92
47785;BME280;35233;55.686;37.848;2023-04-25T01:44:09;99543.75;;;20.93;31.01
47785;BME280;35233;55.686;37.848;2023-04-25T01:46:34;99543.84;;;20.91;31.04
47785;BME280;35233;55.686;37.848;2023-04-25T01:49:00;99543.00;;;20.91;30.75
47785;BME280;35233;55.686;37.848;2023-04-25T01:51:26;99538.00;;;20.86;31.16
47785;BME280;35233;55.686;37.848;2023-04-25T01:53:52;99541.53;;;20.87;31.30
47785;BME280;35233;55.686;37.848;2023-04-25T01:56:18;99541.41;;;20.88;31.09
47785;BME280;35233;55.686;37.848;2023-04-25T01:58:44;99538.63;;;20.90;30.79
47785;BME280;35233;55.686;37.848;2023-04-25T02:01:09;99541.41;;;20.88;31.03
47785;BME280;35233;55.686;37.848;2023-04-25T02:03:36;99530.78;;;20.87;31.09
47785;BME280;35233;55.686;37.848;2023-04-25T02:06:01;99536.03;;;20.88;31.01
47785;BME280;35233;55.686;37.848;2023-04-25T02:08:26;99535.06;;;20.89;31.28
47785;BME280;35233;55.686;37.848;2023-04-25T02:10:52;99531.41;;;20.90;31.02
47785;BME280;35233;55.686;37.848;2023-04-25T02:13:18;99537.53;;;20.92;31.03
47785;BME280;35233;55.686;37.848;2023-04-25T02:15:43;99530.34;;;20.93;31.08
47785;BME280;35233;55.686;37.848;2023-04-25T02:18:09;99534.00;;;20.92;31.35
47785;BME280;35233;55.686;37.848;2023-04-25T02:20:35;99538.38;;;20.93;31.21
47785;BME280;35233;55.686;37.848;2023-04-25T02:23:02;99539.16;;;20.95;31.29
47785;BME280;35233;55.686;37.848;2023-04-25T02:25:27;99550.50;;;20.98;30.91
47785;BME280;35233;55.686;37.848;2023-04-25T02:27:53;99552.13;;;21.01;31.37
47785;BME280;35233;55.686;37.848;2023-04-25T02:30:19;99557.28;;;21.04;31.32
47785;BME280;35233;55.686;37.848;2023-04-25T02:32:45;99552.84;;;21.03;31.11
47785;BME280;35233;55.686;37.848;2023-04-25T02:35:10;99558.22;;;21.03;30.84
47785;BME280;35233;55.686;37.848;2023-04-25T02:37:38;99558.88;;;21.07;31.26
47785;BME280;35233;55.686;37.848;2023-04-25T02:40:05;99555.13;;;21.09;30.85
47785;BME280;35233;55.686;37.848;2023-04-25T02:42:31;99545.31;;;21.08;31.13
47785;BME280;35233;55.686;37.848;2023-04-25T02:44:57;99551.22;;;21.13;31.20
47785;BME280;35233;55.686;37.848;2023-04-25T02:47:23;99557.56;;;21.12;30.80
47785;BME280;35233;55.686;37.848;2023-04-25T02:49:48;99558.06;;;21.17;31.23
47785;BME280;35233;55.686;37.848;2023-04-25T02:52:14;99552.59;;;21.19;30.86
47785;BME280;35233;55.686;37.848;2023-04-25T02:54:42;99553.22;;;21.22;31.11
47785;BME280;35233;55.686;37.848;2023-04-25T02:57:08;99552.25;;;21.23;30.80
47785;BME280;35233;55.686;37.848;2023-04-25T02:59:33;99553.75;;;21.28;30.92
47785;BME280;35233;55.686;37.848;2023-04-25T03:01:59;99551.28;;;21.24;30.67
47785;BME280;35233;55.686;37.848;2023-04-25T03:04:24;99557.19;;;21.30;30.89
47785;BME280;35233;55.686;37.848;2023-04-25T03:06:50;99554.50;;;21.30;30.79
47785;BME280;35233;55.686;37.848;2023-04-25T03:09:16;99563.19;;;21.33;30.76
47785;BME280;35233;55.686;37.848;2023-04-25T03:11:41;99555.88;;;21.35;30.79
47785;BME280;35233;55.686;37.848;2023-04-25T03:14:07;99581.44;;;21.41;30.40
47785;BME280;35233;55.686;37.848;2023-04-25T03:16:33;99570.69;;;21.41;30.61
47785;BME280;35233;55.686;37.848;2023-04-25T03:18:59;99577.44;;;21.46;30.73
47785;BME280;35233;55.686;37.848;2023-04-25T03:21:24;99578.41;;;21.45;30.80
47785;BME280;35233;55.686;37.848;2023-04-25T03:23:50;99571.97;;;21.48;30.53
47785;BME280;35233;55.686;37.848;2023-04-25T03:26:15;99569.28;;;21.48;30.80
47785;BME280;35233;55.686;37.848;2023-04-25T03:28:41;99575.50;;;21.48;30.73
47785;BME280;35233;55.686;37.848;2023-04-25T03:31:07;99573.91;;;21.46;30.44
47785;BME280;35233;55.686;37.848;2023-04-25T03:33:32;99581.84;;;21.47;30.64
47785;BME280;35233;55.686;37.848;2023-04-25T03:35:58;99573.78;;;21.47;30.64
47785;BME280;35233;55.686;37.848;2023-04-25T03:38:23;99571.09;;;21.47;30.87
47785;BME280;35233;55.686;37.848;2023-04-25T03:40:50;99574.50;;;21.50;30.51
47785;BME280;35233;55.686;37.848;2023-04-25T03:43:16;99579.69;;;21.53;30.90
47785;BME280;35233;55.686;37.848;2023-04-25T03:45:41;99577.72;;;21.55;31.15
47785;BME280;35233;55.686;37.848;2023-04-25T03:48:07;99576.78;;;21.56;31.00
47785;BME280;35233;55.686;37.848;2023-04-25T03:50:32;99567.50;;;21.60;30.57
47785;BME280;35233;55.686;37.848;2023-04-25T03:52:58;99569.44;;;21.58;30.48
47785;BME280;35233;55.686;37.848;2023-04-25T03:55:23;99563.94;;;21.59;30.84
47785;BME280;35233;55.686;37.848;2023-04-25T03:57:49;99573.72;;;21.60;30.73
47785;BME280;35233;55.686;37.848;2023-04-25T04:00:14;99569.94;;;21.63;31.04
47785;BME280;35233;55.686;37.848;2023-04-25T04:02:40;99568.25;;;21.62;30.53
47785;BME280;35233;55.686;37.848;2023-04-25T04:05:06;99574.25;;;21.65;30.54
47785;BME280;35233;55.686;37.848;2023-04-25T04:07:31;99560.91;;;21.64;30.68
47785;BME280;35233;55.686;37.848;2023-04-25T04:09:58;99573.25;;;21.66;30.96
47785;BME280;35233;55.686;37.848;2023-04-25T04:15:09;99566.47;;;21.74;30.40
47785;BME280;35233;55.686;37.848;2023-04-25T04:17:35;99573.31;;;21.78;30.64
47785;BME280;35233;55.686;37.848;2023-04-25T04:20:00;99568.69;;;21.80;30.57
47785;BME280;35233;55.686;37.848;2023-04-25T04:22:26;99561.22;;;21.83;30.32
47785;BME280;35233;55.686;37.848;2023-04-25T04:24:51;99564.56;;;21.98;30.59
47785;BME280;35233;55.686;37.848;2023-04-25T04:27:18;99560.28;;;22.53;29.54
47785;BME280;35233;55.686;37.848;2023-04-25T04:29:45;99557.13;;;22.13;30.45
47785;BME280;35233;55.686;37.848;2023-04-25T04:32:12;99560.44;;;22.05;30.31
47785;BME280;35233;55.686;37.848;2023-04-25T04:34:38;99561.63;;;22.01;30.24
47785;BME280;35233;55.686;37.848;2023-04-25T04:37:05;99566.06;;;22.02;30.68
47785;BME280;35233;55.686;37.848;2023-04-25T04:39:32;99564.84;;;22.06;30.78
47785;BME280;35233;55.686;37.848;2023-04-25T04:41:58;99564.59;;;22.09;30.86
47785;BME280;35233;55.686;37.848;2023-04-25T04:44:24;99568.28;;;22.08;31.13
47785;BME280;35233;55.686;37.848;2023-04-25T04:46:50;99557.38;;;22.10;30.58
47785;BME280;35233;55.686;37.848;2023-04-25T04:49:16;99564.25;;;22.14;30.71
47785;BME280;35233;55.686;37.848;2023-04-25T04:51:42;99558.53;;;22.19;30.89
47785;BME280;35233;55.686;37.848;2023-04-25T04:54:09;99546.22;;;22.72;30.18
47785;BME280;35233;55.686;37.848;2023-04-25T04:56:35;99549.31;;;23.34;29.56
47785;BME280;35233;55.686;37.848;2023-04-25T04:59:00;99545.38;;;23.38;29.49
47785;BME280;35233;55.686;37.848;2023-04-25T05:01:28;99548.72;;;23.62;29.95
47785;BME280;35233;55.686;37.848;2023-04-25T05:03:55;99553.72;;;23.67;30.51
47785;BME280;35233;55.686;37.848;2023-04-25T05:06:25;99548.09;;;23.70;30.21
47785;BME280;35233;55.686;37.848;2023-04-25T05:08:51;99552.75;;;23.68;30.11
47785;BME280;35233;55.686;37.848;2023-04-25T05:11:16;99540.75;;;23.61;30.16
47785;BME280;35233;55.686;37.848;2023-04-25T05:14:00;99547.38;;;23.68;30.11
47785;BME280;35233;55.686;37.848;2023-04-25T05:16:25;99543.66;;;23.69;29.78
47785;BME280;35233;55.686;37.848;2023-04-25T05:18:51;99535.09;;;23.64;29.65
47785;BME280;35233;55.686;37.848;2023-04-25T05:21:16;99540.13;;;23.68;29.87
47785;BME280;35233;55.686;37.848;2023-04-25T05:23:42;99540.66;;;23.62;29.77
47785;BME280;35233;55.686;37.848;2023-04-25T05:26:07;99540.66;;;23.62;29.67
47785;BME280;35233;55.686;37.848;2023-04-25T05:28:41;99552.03;;;23.66;29.35
47785;BME280;35233;55.686;37.848;2023-04-25T05:31:07;99546.63;;;23.66;29.28
47785;BME280;35233;55.686;37.848;2023-04-25T05:33:35;99552.75;;;23.68;29.19
47785;BME280;35233;55.686;37.848;2023-04-25T05:36:00;99545.88;;;23.64;29.30
47785;BME280;35233;55.686;37.848;2023-04-25T05:38:26;99546.66;;;23.55;29.23
47785;BME280;35233;55.686;37.848;2023-04-25T05:40:51;99551.09;;;23.44;29.35
47785;BME280;35233;55.686;37.848;2023-04-25T05:43:17;99539.03;;;23.39;29.27
47785;BME280;35233;55.686;37.848;2023-04-25T05:45:43;99545.72;;;23.44;29.37
47785;BME280;35233;55.686;37.848;2023-04-25T05:48:08;99539.34;;;23.45;29.37
47785;BME280;35233;55.686;37.848;2023-04-25T05:50:34;99537.13;;;23.50;29.18
47785;BME280;35233;55.686;37.848;2023-04-25T05:52:59;99531.94;;;23.59;29.16
47785;BME280;35233;55.686;37.848;2023-04-25T05:55:25;99527.41;;;23.59;29.02
47785;BME280;35233;55.686;37.848;2023-04-25T05:57:50;99527.91;;;23.53;29.19
47785;BME280;35233;55.686;37.848;2023-04-25T06:00:19;99523.03;;;23.47;29.14
47785;BME280;35233;55.686;37.848;2023-04-25T06:02:45;99526.63;;;23.47;29.25
47785;BME280;35233;55.686;37.848;2023-04-25T06:05:10;99530.16;;;23.48;29.19
47785;BME280;35233;55.686;37.848;2023-04-25T06:07:36;99521.44;;;23.44;29.31
47785;BME280;35233;55.686;37.848;2023-04-25T06:10:02;99515.69;;;23.49;28.97
47785;BME280;35233;55.686;37.848;2023-04-25T06:12:29;99506.34;;;23.53;29.15
47785;BME280;35233;55.686;37.848;2023-04-25T06:14:55;99499.94;;;23.65;28.92
47785;BME280;35233;55.686;37.848;2023-04-25T06:17:21;99491.47;;;23.70;28.82
47785;BME280;35233;55.686;37.848;2023-04-25T06:19:47;99496.06;;;23.79;28.62
47785;BME280;35233;55.686;37.848;2023-04-25T06:22:12;99498.97;;;23.87;28.63
47785;BME280;35233;55.686;37.848;2023-04-25T06:24:56;99496.41;;;23.86;28.56
47785;BME280;35233;55.686;37.848;2023-04-25T06:27:24;99493.97;;;23.83;28.65
47785;BME280;35233;55.686;37.848;2023-04-25T06:29:49;99474.22;;;23.82;28.50
47785;BME280;35233;55.686;37.848;2023-04-25T06:32:15;99491.91;;;23.96;28.57
47785;BME280;35233;55.686;37.848;2023-04-25T06:34:40;99484.81;;;23.95;28.71
47785;BME280;35233;55.686;37.848;2023-04-25T06:37:06;99494.34;;;23.99;28.52
47785;BME280;35233;55.686;37.848;2023-04-25T06:39:31;99498.16;;;23.97;28.76
47785;BME280;35233;55.686;37.848;2023-04-25T06:41:57;99491.22;;;23.94;28.68
47785;BME280;35233;55.686;37.848;2023-04-25T06:44:23;99494.22;;;24.01;28.54
47785;BME280;35233;55.686;37.848;2023-04-25T06:46:51;99496.66;;;24.04;28.43
47785;BME280;35233;55.686;37.848;2023-04-25T06:49:17;99492.84;;;24.06;28.48
47785;BME280;35233;55.686;37.848;2023-04-25T06:51:42;99504.22;;;24.10;28.51
47785;BME280;35233;55.686;37.848;2023-04-25T06:54:08;99503.03;;;24.03;28.52
47785;BME280;35233;55.686;37.848;2023-04-25T06:56:34;99498.81;;;24.10;28.20
47785;BME280;35233;55.686;37.848;2023-04-25T06:58:59;99492.56;;;24.09;28.14
47785;BME280;35233;55.686;37.848;2023-04-25T07:01:26;99505.34;;;24.07;28.21
47785;BME280;35233;55.686;37.848;2023-04-25T07:03:51;99496.25;;;24.08;28.25
47785;BME280;35233;55.686;37.848;2023-04-25T07:06:18;99492.31;;;24.12;27.82
47785;BME280;35233;55.686;37.848;2023-04-25T07:08:47;99492.88;;;24.16;27.88
47785;BME280;35233;55.686;37.848;2023-04-25T07:11:12;99494.16;;;24.12;28.00
47785;BME280;35233;55.686;37.848;2023-04-25T07:13:38;99495.13;;;24.11;28.10
47785;BME280;35233;55.686;37.848;2023-04-25T07:16:04;99501.38;;;24.11;28.01
47785;BME280;35233;55.686;37.848;2023-04-25T07:18:30;99502.53;;;24.09;28.25
47785;BME280;35233;55.686;37.848;2023-04-25T07:20:55;99508.03;;;24.07;28.05
47785;BME280;35233;55.686;37.848;2023-04-25T07:23:21;99511.59;;;24.08;27.95
47785;BME280;35233;55.686;37.848;2023-04-25T07:25:47;99499.09;;;24.07;27.83
47785;BME280;35233;55.686;37.848;2023-04-25T07:28:12;99509.63;;;24.10;27.94
47785;BME280;35233;55.686;37.848;2023-04-25T07:30:38;99514.25;;;23.77;28.64
47785;BME280;35233;55.686;37.848;2023-04-25T07:33:03;99504.56;;;23.42;29.48
47785;BME280;35233;55.686;37.848;2023-04-25T07:35:29;99502.44;;;23.25;29.77
47785;BME280;35233;55.686;37.848;2023-04-25T07:37:54;99504.63;;;23.20;29.96
47785;BME280;35233;55.686;37.848;2023-04-25T07:40:20;99504.06;;;23.16;30.26
47785;BME280;35233;55.686;37.848;2023-04-25T07:42:46;99494.63;;;23.11;29.82
47785;BME280;35233;55.686;37.848;2023-04-25T07:45:12;99515.94;;;23.14;30.10
47785;BME280;35233;55.686;37.848;2023-04-25T07:47:37;99519.63;;;23.13;30.25
47785;BME280;35233;55.686;37.848;2023-04-25T07:50:04;99518.22;;;23.18;30.13
47785;BME280;35233;55.686;37.848;2023-04-25T07:52:29;99503.72;;;23.10;30.31
47785;BME280;35233;55.686;37.848;2023-04-25T07:54:55;99515.34;;;23.10;30.39
47785;BME280;35233;55.686;37.848;2023-04-25T07:57:20;99522.19;;;23.14;30.16
47785;BME280;35233;55.686;37.848;2023-04-25T07:59:46;99521.66;;;23.20;30.00
47785;BME280;35233;55.686;37.848;2023-04-25T08:02:11;99503.91;;;23.18;30.09
47785;BME280;35233;55.686;37.848;2023-04-25T08:04:37;99520.56;;;23.23;30.07
47785;BME280;35233;55.686;37.848;2023-04-25T08:07:03;99511.47;;;23.24;30.13
47785;BME280;35233;55.686;37.848;2023-04-25T08:09:28;99507.09;;;23.23;30.13
47785;BME280;35233;55.686;37.848;2023-04-25T08:11:54;99508.34;;;23.19;30.11
47785;BME280;35233;55.686;37.848;2023-04-25T08:14:20;99502.47;;;23.14;30.13
47785;BME280;35233;55.686;37.848;2023-04-25T08:16:45;99496.94;;;23.15;30.16
47785;BME280;35233;55.686;37.848;2023-04-25T08:19:11;99497.19;;;23.12;30.43
47785;BME280;35233;55.686;37.848;2023-04-25T08:21:37;99506.16;;;23.13;30.47
47785;BME280;35233;55.686;37.848;2023-04-25T08:24:03;99492.03;;;23.09;30.40
47785;BME280;35233;55.686;37.848;2023-04-25T08:26:29;99502.81;;;23.09;30.60
47785;BME280;35233;55.686;37.848;2023-04-25T08:28:55;99486.06;;;23.05;30.80
47785;BME280;35233;55.686;37.848;2023-04-25T08:31:20;99487.75;;;23.07;30.68
47785;BME280;35233;55.686;37.848;2023-04-25T08:33:46;99488.66;;;23.07;30.87
47785;BME280;35233;55.686;37.848;2023-04-25T08:36:11;99482.63;;;23.03;30.84
47785;BME280;35233;55.686;37.848;2023-04-25T08:38:37;99491.44;;;23.05;30.77
47785;BME280;35233;55.686;37.848;2023-04-25T08:41:03;99472.09;;;23.00;30.90
47785;BME280;35233;55.686;37.848;2023-04-25T08:43:30;99475.03;;;23.09;30.94
47785;BME280;35233;55.686;37.848;2023-04-25T08:45:59;99469.78;;;23.07;31.00
47785;BME280;35233;55.686;37.848;2023-04-25T08:48:27;99463.41;;;23.08;30.86
47785;BME280;35233;55.686;37.848;2023-04-25T08:50:55;99463.41;;;23.08;30.73
47785;BME280;35233;55.686;37.848;2023-04-25T08:53:29;99453.97;;;23.14;31.13
47785;BME280;35233;55.686;37.848;2023-04-25T08:55:56;99459.31;;;23.25;30.60
47785;BME280;35233;55.686;37.848;2023-04-25T08:58:22;99452.66;;;23.29;30.84
47785;BME280;35233;55.686;37.848;2023-04-25T09:00:49;99459.13;;;23.38;30.65
47785;BME280;35233;55.686;37.848;2023-04-25T09:03:15;99450.13;;;23.48;30.55
47785;BME280;35233;55.686;37.848;2023-04-25T09:05:41;99446.91;;;23.55;30.48
47785;BME280;35233;55.686;37.848;2023-04-25T09:08:08;99444.78;;;23.58;30.37
47785;BME280;35233;55.686;37.848;2023-04-25T09:10:34;99439.97;;;23.62;30.24
47785;BME280;35233;55.686;37.848;2023-04-25T09:13:11;99433.75;;;23.61;30.31
47785;BME280;35233;55.686;37.848;2023-04-25T09:18:26;99434.81;;;23.70;30.47
47785;BME280;35233;55.686;37.848;2023-04-25T09:20:56;99417.66;;;23.71;30.31
47785;BME280;35233;55.686;37.848;2023-04-25T09:23:23;99431.47;;;23.78;30.25
47785;BME280;35233;55.686;37.848;2023-04-25T09:25:50;99425.94;;;23.79;30.31
47785;BME280;35233;55.686;37.848;2023-04-25T09:28:16;99419.41;;;23.82;30.36
47785;BME280;35233;55.686;37.848;2023-04-25T09:30:47;99414.63;;;23.85;30.32
47785;BME280;35233;55.686;37.848;2023-04-25T09:33:13;99412.44;;;23.79;30.24
47785;BME280;35233;55.686;37.848;2023-04-25T09:35:44;99404.97;;;23.83;30.27
47785;BME280;35233;55.686;37.848;2023-04-25T09:38:18;99409.25;;;23.85;30.44
47785;BME280;35233;55.686;37.848;2023-04-25T09:40:45;99405.81;;;23.83;30.43
47785;BME280;35233;55.686;37.848;2023-04-25T09:43:21;99417.75;;;23.90;30.36
47785;BME280;35233;55.686;37.848;2023-04-25T09:45:47;99426.47;;;23.94;30.66
47785;BME280;35233;55.686;37.848;2023-04-25T09:48:21;99406.44;;;23.97;30.30
47785;BME280;35233;55.686;37.848;2023-04-25T09:51:06;99407.56;;;23.94;30.29
47785;BME280;35233;55.686;37.848;2023-04-25T09:53:33;99413.06;;;23.83;30.59
47785;BME280;35233;55.686;37.848;2023-04-25T09:56:00;99414.28;;;23.79;30.69
47785;BME280;35233;55.686;37.848;2023-04-25T09:58:29;99407.78;;;23.81;30.81
47785;BME280;35233;55.686;37.848;2023-04-25T10:00:59;99403.84;;;23.85;30.67
47785;BME280;35233;55.686;37.848;2023-04-25T10:03:25;99397.28;;;23.88;30.83
47785;BME280;35233;55.686;37.848;2023-04-25T10:05:52;99399.88;;;23.89;30.76
47785;BME280;35233;55.686;37.848;2023-04-25T10:08:19;99386.50;;;23.88;30.71
47785;BME280;35233;55.686;37.848;2023-04-25T10:10:46;99392.25;;;23.94;30.53
47785;BME280;35233;55.686;37.848;2023-04-25T10:13:14;99398.06;;;24.00;30.50
47785;BME280;35233;55.686;37.848;2023-04-25T10:15:40;99390.13;;;23.98;30.41
47785;BME280;35233;55.686;37.848;2023-04-25T10:18:06;99385.44;;;24.00;30.45
47785;BME280;35233;55.686;37.848;2023-04-25T10:20:32;99391.81;;;23.99;30.60
47785;BME280;35233;55.686;37.848;2023-04-25T10:23:06;99381.56;;;23.93;30.62
47785;BME280;35233;55.686;37.848;2023-04-25T10:25:34;99375.31;;;23.92;30.81
47785;BME280;35233;55.686;37.848;2023-04-25T10:28:00;99378.28;;;23.89;30.98
47785;BME280;35233;55.686;37.848;2023-04-25T10:30:27;99375.88;;;23.86;30.95
47785;BME280;35233;55.686;37.848;2023-04-25T10:32:54;99369.63;;;23.86;30.93
47785;BME280;35233;55.686;37.848;2023-04-25T10:35:28;99367.78;;;23.86;30.86
47785;BME280;35233;55.686;37.848;2023-04-25T10:38:10;99367.78;;;23.86;30.95
47785;BME280;35233;55.686;37.848;2023-04-25T10:40:39;99356.78;;;23.78;30.96
47785;BME280;35233;55.686;37.848;2023-04-25T10:46:02;99352.44;;;23.87;31.15
47785;BME280;35233;55.686;37.848;2023-04-25T10:48:29;99355.59;;;23.92;30.99
47785;BME280;35233;55.686;37.848;2023-04-25T10:51:08;99350.19;;;23.92;31.14
47785;BME280;35233;55.686;37.848;2023-04-25T10:53:34;99352.47;;;23.97;31.12
47785;BME280;35233;55.686;37.848;2023-04-25T10:56:00;99345.94;;;23.99;30.96
47785;BME280;35233;55.686;37.848;2023-04-25T10:58:26;99341.13;;;24.03;30.94
47785;BME280;35233;55.686;37.848;2023-04-25T11:00:52;99338.19;;;24.06;30.93
47785;BME280;35233;55.686;37.848;2023-04-25T11:03:21;99330.59;;;24.00;31.20
47785;BME280;35233;55.686;37.848;2023-04-25T11:05:48;99340.13;;;23.94;31.09
47785;BME280;35233;55.686;37.848;2023-04-25T11:08:22;99329.44;;;23.92;31.07
47785;BME280;35233;55.686;37.848;2023-04-25T11:10:55;99323.78;;;23.95;31.08
47785;BME280;35233;55.686;37.848;2023-04-25T11:13:21;99322.78;;;23.97;30.76
47785;BME280;35233;55.686;37.848;2023-04-25T11:15:51;99323.22;;;23.92;31.12
47785;BME280;35233;55.686;37.848;2023-04-25T11:18:17;99318.66;;;23.92;31.19
47785;BME280;35233;55.686;37.848;2023-04-25T11:20:43;99315.88;;;24.04;31.02
47785;BME280;35233;55.686;37.848;2023-04-25T11:23:09;99315.31;;;24.10;31.08
47785;BME280;35233;55.686;37.848;2023-04-25T11:25:34;99319.59;;;24.12;31.06
47785;BME280;35233;55.686;37.848;2023-04-25T11:28:00;99306.66;;;24.16;30.94
47785;BME280;35233;55.686;37.848;2023-04-25T11:30:26;99307.66;;;24.15;31.05
47785;BME280;35233;55.686;37.848;2023-04-25T11:32:52;99306.53;;;24.17;31.12
47785;BME280;35233;55.686;37.848;2023-04-25T11:35:21;99290.63;;;24.14;31.06
47785;BME280;35233;55.686;37.848;2023-04-25T11:37:48;99289.63;;;24.15;30.79
47785;BME280;35233;55.686;37.848;2023-04-25T11:40:15;99297.28;;;24.20;30.70
47785;BME280;35233;55.686;37.848;2023-04-25T11:42:44;99283.94;;;24.18;30.69
47785;BME280;35233;55.686;37.848;2023-04-25T11:45:10;99281.22;;;24.09;31.13
47785;BME280;35233;55.686;37.848;2023-04-25T11:47:36;99292.44;;;24.14;31.10
47785;BME280;35233;55.686;37.848;2023-04-25T11:50:03;99289.63;;;24.15;31.14
47785;BME280;35233;55.686;37.848;2023-04-25T11:52:46;99284.06;;;24.17;31.07
47785;BME280;35233;55.686;37.848;2023-04-25T11:55:16;99275.69;;;24.20;30.66
47785;BME280;35233;55.686;37.848;2023-04-25T11:57:44;99275.00;;;24.18;30.97
47785;BME280;35233;55.686;37.848;2023-04-25T12:00:15;99275.44;;;24.23;30.92
47785;BME280;35233;55.686;37.848;2023-04-25T12:02:43;99273.16;;;24.28;30.85
47785;BME280;35233;55.686;37.848;2023-04-25T12:05:11;99268.47;;;24.30;30.72
47785;BME280;35233;55.686;37.848;2023-04-25T12:07:37;99255.25;;;24.27;30.83
47785;BME280;35233;55.686;37.848;2023-04-25T12:10:11;99257.66;;;24.30;30.90
47785;BME280;35233;55.686;37.848;2023-04-25T12:12:38;99250.56;;;24.29;31.10
47785;BME280;35233;55.686;37.848;2023-04-25T12:17:40;99242.19;;;24.32;30.84
47785;BME280;35233;55.686;37.848;2023-04-25T12:20:11;99238.09;;;24.38;30.81
47785;BME280;35233;55.686;37.848;2023-04-25T12:22:37;99239.97;;;24.47;31.11
47785;BME280;35233;55.686;37.848;2023-04-25T12:25:04;99228.16;;;24.48;30.79
47785;BME280;35233;55.686;37.848;2023-04-25T12:27:31;99229.56;;;24.43;30.77
47785;BME280;35233;55.686;37.848;2023-04-25T12:29:57;99230.66;;;24.40;30.77
47785;BME280;35233;55.686;37.848;2023-04-25T12:32:24;99232.41;;;24.41;30.56
47785;BME280;35233;55.686;37.848;2023-04-25T12:34:49;99213.63;;;24.30;30.94
47785;BME280;35233;55.686;37.848;2023-04-25T12:37:15;99218.75;;;24.33;31.01
47785;BME280;35233;55.686;37.848;2023-04-25T12:39:41;99207.50;;;24.28;31.18
47785;BME280;35233;55.686;37.848;2023-04-25T12:42:06;99204.09;;;24.26;31.22
47785;BME280;35233;55.686;37.848;2023-04-25T12:44:37;99211.22;;;24.27;31.08
47785;BME280;35233;55.686;37.848;2023-04-25T12:47:03;99207.38;;;24.29;31.05
47785;BME280;35233;55.686;37.848;2023-04-25T12:49:29;99199.28;;;24.29;31.21
47785;BME280;35233;55.686;37.848;2023-04-25T12:51:55;99188.78;;;24.26;31.20
47785;BME280;35233;55.686;37.848;2023-04-25T12:54:20;99183.50;;;24.34;31.05
47785;BME280;35233;55.686;37.848;2023-04-25T12:56:46;99187.63;;;24.38;31.17
47785;BME280;35233;55.686;37.848;2023-04-25T12:59:11;99188.34;;;24.40;31.00